Time;durP1;ratioP1;P1;durP2;ratioP2;P2;SDS_P1;SDS_P2;PMS_P1;PMS_P2;Temp;Humidity;BMP_temperature;BMP_pressure;BME280_temperature;BME280_humidity;BME280_pressure;Samples;Min_cycle;Max_cycle;Signal;HPM_P1;HPM_P2
2021/07/11 00:01:09;;;;;;;8.20;2.73;;;;;;;14.69;nan;96621.00;3546270;40;20455;-72
2021/07/11 00:03:37;;;;;;;5.17;2.10;;;;;;;14.64;nan;96618.75;3548368;40;20579;-72
2021/07/11 00:06:05;;;;;;;5.90;2.37;;;;;;;14.59;nan;96619.13;3550216;40;20871;-72
2021/07/11 00:08:33;;;;;;;5.20;2.33;;;;;;;14.40;nan;96624.25;3548605;40;20519;-72
2021/07/11 00:11:01;;;;;;;4.97;2.40;;;;;;;14.41;nan;96626.75;3553006;40;20874;-75
2021/07/11 00:13:29;;;;;;;4.80;2.70;;;;;;;14.47;nan;96617.50;3549839;40;20820;-72
2021/07/11 00:15:58;;;;;;;4.93;2.87;;;;;;;14.54;nan;96608.09;3548147;40;20471;-71
2021/07/11 00:18:26;;;;;;;3.80;2.33;;;;;;;14.69;nan;96615.72;3546824;40;20463;-71
2021/07/11 00:20:54;;;;;;;4.20;1.93;;;;;;;14.70;nan;96615.59;3551422;40;20995;-72
2021/07/11 00:23:21;;;;;;;5.30;2.67;;;;;;;14.75;nan;96608.13;3561844;40;20464;-73
2021/07/11 00:25:51;;;;;;;2.40;2.07;;;;;;;14.80;nan;96613.84;3546166;40;20565;-72
2021/07/11 00:28:18;;;;;;;5.80;2.17;;;;;;;14.76;nan;96616.84;3545693;40;20483;-72
2021/07/11 00:30:46;;;;;;;6.30;2.50;;;;;;;14.61;nan;96613.75;3546188;40;20480;-73
2021/07/11 00:33:15;;;;;;;3.10;1.90;;;;;;;14.57;nan;96612.34;3550607;40;20887;-73
2021/07/11 00:35:43;;;;;;;5.93;2.40;;;;;;;14.46;nan;96612.38;3550583;40;20537;-71
2021/07/11 00:38:11;;;;;;;5.00;1.93;;;;;;;14.43;nan;96616.94;3548698;40;20723;-71
2021/07/11 00:40:39;;;;;;;4.03;2.23;;;;;;;14.33;nan;96608.13;3546350;40;20996;-73
2021/07/11 00:43:07;;;;;;;3.50;1.90;;;;;;;14.31;nan;96609.22;3548365;40;20874;-73
2021/07/11 00:45:35;;;;;;;2.60;1.80;;;;;;;14.29;nan;96617.25;3547336;40;20557;-72
2021/07/11 00:48:03;;;;;;;3.80;1.97;;;;;;;14.25;nan;96618.47;3549749;40;20542;-73
2021/07/11 00:50:33;;;;;;;3.73;2.10;;;;;;;14.21;nan;96612.63;3549293;40;20444;-72
2021/07/11 00:53:01;;;;;;;5.40;2.03;;;;;;;14.22;nan;96616.91;3554633;40;20479;-71
2021/07/11 00:55:29;;;;;;;2.80;2.07;;;;;;;14.24;nan;96616.81;3547790;40;20802;-71
2021/07/11 00:57:57;;;;;;;3.83;1.93;;;;;;;14.31;nan;96609.22;3551423;40;20462;-73
2021/07/11 01:00:25;;;;;;;6.10;2.27;;;;;;;14.35;nan;96616.75;3552017;40;20928;-71
2021/07/11 01:02:57;;;;;;;3.97;2.50;;;;;;;14.28;nan;96620.84;3548670;40;20783;-72
2021/07/11 01:05:26;;;;;;;2.30;2.03;;;;;;;14.21;nan;96617.03;3550633;40;20694;-71
2021/07/11 01:08:04;;;;;;;3.03;2.03;;;;;;;14.17;nan;96618.25;3548187;40;20483;-72
2021/07/11 01:10:35;;;;;;;5.03;1.93;;;;;;;14.17;nan;96620.91;3556908;40;20546;-72
2021/07/11 01:13:07;;;;;;;3.63;2.13;;;;;;;14.10;nan;96623.22;3550206;40;20944;-73
2021/07/11 01:15:38;;;;;;;2.77;2.10;;;;;;;14.06;nan;96621.81;3547445;40;20486;-74
2021/07/11 01:18:08;;;;;;;2.97;2.00;;;;;;;13.99;nan;96618.00;3547352;40;20565;-71
2021/07/11 01:20:43;;;;;;;3.00;1.83;;;;;;;14.08;nan;96621.69;3547570;40;20493;-70
2021/07/11 01:23:31;;;;;;;5.13;2.40;;;;;;;13.99;nan;96626.72;3548274;40;20577;-72
2021/07/11 01:26:03;;;;;;;2.97;2.10;;;;;;;14.01;nan;96627.47;3549583;40;20832;-72
2021/07/11 01:28:31;;;;;;;2.77;1.80;;;;;;;14.08;nan;96632.22;3549162;40;20586;-72
2021/07/11 01:31:00;;;;;;;3.13;2.00;;;;;;;14.02;nan;96634.38;3548243;40;20478;-73
2021/07/11 01:33:31;;;;;;;5.10;2.47;;;;;;;13.95;nan;96629.72;3547073;40;20469;-73
2021/07/11 01:36:00;;;;;;;4.97;2.00;;;;;;;13.97;nan;96635.72;3545970;40;20591;-72
2021/07/11 01:38:28;;;;;;;3.27;2.30;;;;;;;13.99;nan;96637.25;3546605;40;20543;-72
2021/07/11 01:40:57;;;;;;;2.10;1.90;;;;;;;13.97;nan;96633.91;3553718;40;20791;-73
2021/07/11 01:43:27;;;;;;;3.07;2.40;;;;;;;13.98;nan;96632.13;3548594;40;20454;-73
2021/07/11 01:45:56;;;;;;;2.80;2.13;;;;;;;14.05;nan;96638.53;3547691;40;20559;-74
2021/07/11 01:48:25;;;;;;;8.30;2.50;;;;;;;14.01;nan;96637.13;3549914;40;20800;-73
2021/07/11 01:50:55;;;;;;;5.90;2.07;;;;;;;14.01;nan;96647.66;3550302;40;20452;-73
2021/07/11 01:53:26;;;;;;;4.67;2.30;;;;;;;14.06;nan;96647.31;3548769;40;20849;-75
2021/07/11 01:55:54;;;;;;;3.77;2.00;;;;;;;14.03;nan;96633.44;3546359;40;20509;-75
2021/07/11 01:58:23;;;;;;;4.80;2.67;;;;;;;14.05;nan;96643.81;3546584;40;20804;-74
2021/07/11 02:00:54;;;;;;;4.60;2.17;;;;;;;14.01;nan;96639.75;3552458;40;21021;-74
2021/07/11 02:03:24;;;;;;;2.80;2.20;;;;;;;14.06;nan;96642.88;3548355;40;20606;-74
2021/07/11 02:05:53;;;;;;;2.63;1.83;;;;;;;14.13;nan;96637.91;3547541;40;20504;-74
2021/07/11 02:08:23;;;;;;;4.83;2.00;;;;;;;14.12;nan;96638.91;3548909;40;20438;-71
2021/07/11 02:10:55;;;;;;;3.10;2.37;;;;;;;14.17;nan;96632.28;3548090;40;20773;-73
2021/07/11 02:13:27;;;;;;;10.73;2.70;;;;;;;14.14;nan;96631.69;3549205;40;20879;-74
2021/07/11 02:16:04;;;;;;;2.63;1.97;;;;;;;14.13;nan;96624.75;3544982;40;20873;-73
2021/07/11 02:18:32;;;;;;;2.83;2.10;;;;;;;14.10;nan;96630.28;3548691;40;20835;-71
2021/07/11 02:21:02;;;;;;;3.13;2.30;;;;;;;14.08;nan;96632.22;3549216;40;20469;-71
2021/07/11 02:23:32;;;;;;;9.70;2.30;;;;;;;14.08;nan;96635.66;3553168;40;20472;-72
2021/07/11 02:26:01;;;;;;;5.90;2.03;;;;;;;14.09;nan;96629.44;3551783;40;20829;-73
2021/07/11 02:28:30;;;;;;;3.80;2.33;;;;;;;14.00;nan;96631.03;3553498;40;20486;-73
2021/07/11 02:31:01;;;;;;;6.77;2.10;;;;;;;14.03;nan;96628.16;3551419;40;20580;-73
2021/07/11 02:33:32;;;;;;;7.40;2.27;;;;;;;14.01;nan;96627.47;3551343;40;20559;-74
2021/07/11 02:36:02;;;;;;;6.27;2.43;;;;;;;13.96;nan;96626.16;3557194;40;21307;-73
2021/07/11 02:38:40;;;;;;;4.10;2.60;;;;;;;13.93;nan;96624.59;3555061;40;20523;-72
2021/07/11 02:41:08;;;;;;;15.13;3.33;;;;;;;13.95;nan;96627.94;3551895;40;20780;-73
2021/07/11 02:43:37;;;;;;;5.50;1.90;;;;;;;13.95;nan;96629.72;3550027;40;20620;-72
2021/07/11 02:46:08;;;;;;;2.70;2.23;;;;;;;13.96;nan;96639.31;3554463;40;20473;-73
2021/07/11 02:48:37;;;;;;;5.07;2.23;;;;;;;13.94;nan;96631.53;3553801;40;20439;-74
2021/07/11 02:51:05;;;;;;;4.00;2.23;;;;;;;13.95;nan;96629.72;3553482;40;20568;-73
2021/07/11 02:53:34;;;;;;;4.53;2.67;;;;;;;13.86;nan;96633.97;3550505;40;20558;-73
2021/07/11 02:56:03;;;;;;;4.20;2.50;;;;;;;13.80;nan;96640.56;3551162;40;20558;-74
2021/07/11 02:58:32;;;;;;;4.80;1.93;;;;;;;13.83;nan;96631.56;3553778;40;20547;-73
2021/07/11 03:01:00;;;;;;;4.80;2.17;;;;;;;13.77;nan;96637.34;3549370;40;20599;-74
2021/07/11 03:03:30;;;;;;;3.83;2.17;;;;;;;13.82;nan;96630.75;3553810;40;20837;-74
2021/07/11 03:05:58;;;;;;;2.40;1.73;;;;;;;13.81;nan;96636.94;3555591;40;20454;-71
2021/07/11 03:08:27;;;;;;;3.60;2.63;;;;;;;13.73;nan;96641.19;3552044;40;20559;-74
2021/07/11 03:10:57;;;;;;;4.30;2.90;;;;;;;13.77;nan;96646.06;3549723;40;20879;-72
2021/07/11 03:13:27;;;;;;;5.37;3.60;;;;;;;13.79;nan;96638.06;3556905;40;20442;-72
2021/07/11 03:15:55;;;;;;;7.67;2.70;;;;;;;13.79;nan;96638.88;3555018;40;20475;-74
2021/07/11 03:18:24;;;;;;;5.63;2.77;;;;;;;13.68;nan;96620.50;3551442;40;20693;-73
2021/07/11 03:20:55;;;;;;;4.40;2.97;;;;;;;13.76;nan;96630.38;3551674;40;20555;-73
2021/07/11 03:23:27;;;;;;;4.23;2.93;;;;;;;13.72;nan;96635.09;3550133;40;20580;-72
2021/07/11 03:25:55;;;;;;;2.37;2.10;;;;;;;13.71;nan;96640.47;3551796;40;20932;-71
2021/07/11 03:28:23;;;;;;;3.67;2.93;;;;;;;13.72;nan;96636.88;3554275;40;20587;-71
2021/07/11 03:30:54;;;;;;;4.43;2.67;;;;;;;13.78;nan;96639.00;3553011;40;20913;-73
2021/07/11 03:33:25;;;;;;;8.57;3.37;;;;;;;13.62;nan;96619.22;3550826;40;20474;-74
2021/07/11 03:35:58;;;;;;;3.40;2.43;;;;;;;13.75;nan;96634.00;3548738;40;20909;-72
2021/07/11 03:38:32;;;;;;;2.97;2.33;;;;;;;13.78;nan;96639.00;3549706;40;20477;-74
2021/07/11 03:41:01;;;;;;;8.17;2.60;;;;;;;13.78;nan;96637.22;3550919;40;20921;-72
2021/07/11 03:43:33;;;;;;;4.20;2.20;;;;;;;13.64;nan;96619.91;3550109;40;20772;-74
2021/07/11 03:46:02;;;;;;;9.63;2.77;;;;;;;13.80;nan;96645.00;3547552;40;20841;-72
2021/07/11 03:48:35;;;;;;;3.60;2.47;;;;;;;13.79;nan;96648.56;3550077;40;20452;-73
2021/07/11 03:51:07;;;;;;;5.43;2.30;;;;;;;13.73;nan;96651.72;3546270;40;20446;-73
2021/07/11 03:53:37;;;;;;;5.50;2.50;;;;;;;13.70;nan;96650.16;3546714;40;20488;-72
2021/07/11 03:56:06;;;;;;;6.73;2.37;;;;;;;13.70;nan;96647.53;3547251;40;20913;-72
2021/07/11 03:58:39;;;;;;;4.63;2.37;;;;;;;13.70;nan;96644.03;3548477;40;21216;-73
2021/07/11 04:01:08;;;;;;;3.60;2.83;;;;;;;13.75;nan;96652.41;3545961;40;20886;-71
2021/07/11 04:03:39;;;;;;;8.63;2.83;;;;;;;13.77;nan;96650.50;3553927;40;20473;-73
2021/07/11 04:06:13;;;;;;;3.07;2.33;;;;;;;13.77;nan;96650.50;3554363;40;20556;-72
2021/07/11 04:08:42;;;;;;;2.50;2.27;;;;;;;13.72;nan;96635.09;3552714;40;20821;-73
2021/07/11 04:11:10;;;;;;;3.53;2.60;;;;;;;13.76;nan;96652.31;3550142;40;20827;-73
2021/07/11 04:13:38;;;;;;;7.33;2.50;;;;;;;13.72;nan;96650.88;3549964;40;20439;-74
2021/07/11 04:16:09;;;;;;;5.23;2.33;;;;;;;13.73;nan;96654.34;3550133;40;20512;-74
2021/07/11 04:18:39;;;;;;;3.90;2.50;;;;;;;13.71;nan;96656.25;3557973;40;21116;-74
2021/07/11 04:21:12;;;;;;;6.30;2.87;;;;;;;13.64;nan;96648.00;3548404;40;20465;-71
2021/07/11 04:23:42;;;;;;;3.20;2.57;;;;;;;13.71;nan;96656.25;3547358;40;20934;-74
2021/07/11 04:26:10;;;;;;;4.87;2.67;;;;;;;13.60;nan;96639.53;3547184;40;20686;-73
2021/07/11 04:28:42;;;;;;;6.80;3.13;;;;;;;13.77;nan;96653.13;3551054;40;20744;-73
2021/07/11 04:31:10;;;;;;;4.30;2.30;;;;;;;13.79;nan;96653.84;3545821;40;20863;-74
2021/07/11 04:33:39;;;;;;;4.30;2.63;;;;;;;13.80;nan;96666.06;3545480;40;20486;-72
2021/07/11 04:36:08;;;;;;;10.10;2.70;;;;;;;13.79;nan;96661.75;3546273;40;20980;-74
2021/07/11 04:38:38;;;;;;;4.20;2.30;;;;;;;13.85;nan;96663.88;3548928;40;20474;-73
2021/07/11 04:41:09;;;;;;;8.93;2.90;;;;;;;13.89;nan;96656.56;3552257;40;20477;-75
2021/07/11 04:43:37;;;;;;;5.47;2.63;;;;;;;14.09;nan;96654.94;3551112;40;20926;-75
2021/07/11 04:46:05;;;;;;;5.20;2.20;;;;;;;14.18;nan;96655.00;3547348;40;20575;-73
2021/07/11 04:48:33;;;;;;;4.90;2.70;;;;;;;14.16;nan;96661.38;3546300;40;20836;-73
2021/07/11 04:51:01;;;;;;;4.80;2.83;;;;;;;14.14;nan;96660.66;3546893;40;20819;-72
2021/07/11 04:53:29;;;;;;;3.70;2.43;;;;;;;14.08;nan;96663.81;3551647;40;20930;-75
2021/07/11 04:55:59;;;;;;;5.97;2.90;;;;;;;14.20;nan;96662.78;3549006;40;20937;-75
2021/07/11 04:58:27;;;;;;;6.23;3.63;;;;;;;14.24;nan;96664.22;3548859;40;20507;-73
2021/07/11 05:00:55;;;;;;;7.30;3.20;;;;;;;14.29;nan;96664.69;3546642;40;20459;-74
2021/07/11 05:03:23;;;;;;;5.63;2.80;;;;;;;14.34;nan;96667.75;3550334;40;20744;-73
2021/07/11 05:05:50;;;;;;;3.40;2.27;;;;;;;14.37;nan;96662.25;3553460;40;20924;-77
2021/07/11 05:08:18;;;;;;;3.00;2.50;;;;;;;14.29;nan;96656.78;3548047;40;20757;-73
2021/07/11 05:10:46;;;;;;;6.57;3.27;;;;;;;14.51;nan;96671.63;3547168;40;20481;-74
2021/07/11 05:13:15;;;;;;;7.47;2.70;;;;;;;14.55;nan;96666.94;3547498;40;20432;-77
2021/07/11 05:15:44;;;;;;;4.87;2.30;;;;;;;14.58;nan;96686.00;3547261;40;20473;-74
2021/07/11 05:18:11;;;;;;;14.20;2.57;;;;;;;14.60;nan;96676.16;3550541;40;20691;-74
2021/07/11 05:20:39;;;;;;;3.27;2.40;;;;;;;14.48;nan;96678.94;3548602;40;20454;-74
2021/07/11 05:23:07;;;;;;;6.87;2.30;;;;;;;14.49;nan;96683.25;3545868;40;20832;-72
2021/07/11 05:25:35;;;;;;;8.40;2.97;;;;;;;14.91;nan;96678.81;3545592;40;20459;-74
2021/07/11 05:28:05;;;;;;;5.40;3.10;;;;;;;14.99;nan;96686.94;3547260;40;20503;-74
2021/07/11 05:30:34;;;;;;;5.07;2.27;;;;;;;15.11;nan;96692.97;3546238;40;20941;-72
2021/07/11 05:33:02;;;;;;;5.40;2.30;;;;;;;15.03;nan;96688.34;3545752;40;20970;-75
2021/07/11 05:35:30;;;;;;;6.10;2.43;;;;;;;15.06;nan;96692.53;3548005;40;20465;-74
2021/07/11 05:37:58;;;;;;;3.90;2.70;;;;;;;15.15;nan;96688.25;3549004;40;20598;-74
2021/07/11 05:40:26;;;;;;;11.43;3.30;;;;;;;15.27;nan;96691.63;3550549;40;20554;-75
2021/07/11 05:42:54;;;;;;;3.40;2.40;;;;;;;15.30;nan;96694.84;3552349;40;20565;-75
2021/07/11 05:45:22;;;;;;;7.43;2.60;;;;;;;15.51;nan;96688.69;3546851;40;21091;-73
2021/07/11 05:47:51;;;;;;;6.47;2.77;;;;;;;15.60;nan;96696.63;3548106;40;20456;-72
2021/07/11 05:50:19;;;;;;;4.57;2.10;;;;;;;15.68;nan;96697.75;3547269;40;20696;-73
2021/07/11 05:52:47;;;;;;;10.23;2.90;;;;;;;15.62;nan;96694.69;3549003;40;20891;-73
2021/07/11 05:55:15;;;;;;;6.83;2.30;;;;;;;15.56;nan;96697.03;3554065;40;20462;-74
2021/07/11 05:57:43;;;;;;;7.33;2.53;;;;;;;15.52;nan;96691.16;3549730;40;20537;-74
2021/07/11 06:00:12;;;;;;;3.30;2.20;;;;;;;15.53;nan;96692.03;3554039;40;20460;-71
2021/07/11 06:02:40;;;;;;;5.57;2.23;;;;;;;15.44;nan;96688.38;3548456;40;20844;-74
2021/07/11 06:05:10;;;;;;;4.23;2.60;;;;;;;15.44;nan;96696.28;3552539;40;20478;-73
2021/07/11 06:07:39;;;;;;;5.43;2.17;;;;;;;15.62;nan;96699.13;3550521;40;20685;-74
2021/07/11 06:10:08;;;;;;;4.60;2.77;;;;;;;15.59;nan;96696.75;3550912;40;20847;-71
2021/07/11 06:12:36;;;;;;;5.07;2.53;;;;;;;15.75;nan;96701.56;3546644;40;20490;-72
2021/07/11 06:15:05;;;;;;;3.67;2.57;;;;;;;15.77;nan;96691.69;3546272;39;20920;-72
2021/07/11 06:17:34;;;;;;;7.73;2.30;;;;;;;15.88;nan;96699.50;3547074;40;20448;-72
2021/07/11 06:20:04;;;;;;;2.87;1.83;;;;;;;15.97;nan;96696.03;3550915;39;20488;-73
2021/07/11 06:22:34;;;;;;;3.30;2.07;;;;;;;15.94;nan;96684.94;3550437;40;20522;-71
2021/07/11 06:25:06;;;;;;;4.17;2.40;;;;;;;15.69;nan;96699.44;3548045;40;20474;-72
2021/07/11 06:27:35;;;;;;;3.17;2.10;;;;;;;15.67;nan;96690.81;3551614;40;20711;-71
2021/07/11 06:30:04;;;;;;;4.77;2.50;;;;;;;15.79;nan;96676.56;3548152;40;20844;-73
2021/07/11 06:32:33;;;;;;;3.70;2.67;;;;;;;16.41;nan;96678.00;3551345;40;20837;-72
2021/07/11 06:35:01;;;;;;;3.40;1.83;;;;;;;16.60;nan;96687.72;3550143;39;20463;-73
2021/07/11 06:37:29;;;;;;;9.90;2.27;;;;;;;16.79;nan;96692.13;3547853;40;20843;-72
2021/07/11 06:39:58;;;;;;;4.17;2.27;;;;;;;16.62;nan;96695.50;3545850;40;20471;-71
2021/07/11 06:42:26;;;;;;;4.70;2.13;;;;;;;16.39;nan;96692.34;3547067;40;20832;-71
2021/07/11 06:44:54;;;;;;;3.53;1.90;;;;;;;16.11;nan;96691.31;3551327;40;20806;-72
2021/07/11 06:47:22;;;;;;;14.90;8.50;;;;;;;16.54;nan;96692.72;3545135;40;20777;-71
2021/07/11 06:49:50;;;;;;;3.40;2.50;;;;;;;16.61;nan;96697.31;3544971;40;20768;-73
2021/07/11 06:52:18;;;;;;;2.97;2.03;;;;;;;16.74;nan;96699.69;3546473;40;20452;-71
2021/07/11 06:54:48;;;;;;;3.70;1.80;;;;;;;16.88;nan;96697.59;3550251;40;20542;-70
2021/07/11 06:57:18;;;;;;;2.97;1.70;;;;;;;17.10;nan;96689.31;3551416;40;20539;-72
2021/07/11 06:59:46;;;;;;;13.03;1.90;;;;;;;17.35;nan;96689.66;3549299;40;20992;-71
2021/07/11 07:02:14;;;;;;;4.97;2.30;;;;;;;17.36;nan;96686.84;3546778;40;20466;-70
2021/07/11 07:04:42;;;;;;;4.20;1.97;;;;;;;17.52;nan;96698.63;3547117;40;20893;-72
2021/07/11 07:07:10;;;;;;;3.17;1.80;;;;;;;17.56;nan;96698.22;3548477;40;20537;-70
2021/07/11 07:09:38;;;;;;;2.73;1.60;;;;;;;17.76;nan;96696.28;3550707;40;20502;-70
2021/07/11 07:12:06;;;;;;;2.77;1.87;;;;;;;17.72;nan;96686.97;3549523;40;20536;-73
2021/07/11 07:14:35;;;;;;;1.93;1.70;;;;;;;17.18;nan;96665.59;3550367;39;20564;-72
2021/07/11 07:17:04;;;;;;;8.87;1.60;;;;;;;17.35;nan;96701.06;3554704;40;20921;-71
2021/07/11 07:19:32;;;;;;;3.43;1.83;;;;;;;17.10;nan;96699.91;3549563;40;20720;-72
2021/07/11 07:22:00;;;;;;;3.93;1.87;;;;;;;17.13;nan;96698.78;3555077;40;20534;-71
2021/07/11 07:24:27;;;;;;;3.50;1.80;;;;;;;17.01;nan;96703.41;3547732;40;20486;-72
2021/07/11 07:26:56;;;;;;;2.23;1.60;;;;;;;17.10;nan;96697.25;3547506;40;20541;-73
2021/07/11 07:29:23;;;;;;;2.70;1.90;;;;;;;17.19;nan;96706.97;3547119;40;20521;-71
2021/07/11 07:31:53;;;;;;;3.63;1.80;;;;;;;17.20;nan;96705.16;3551664;40;20829;-73
2021/07/11 07:34:21;;;;;;;4.67;1.53;;;;;;;16.99;nan;96708.00;3552875;40;20534;-71
2021/07/11 07:36:49;;;;;;;7.80;2.13;;;;;;;17.00;nan;96714.97;3549474;40;21115;-74
2021/07/11 07:39:17;;;;;;;3.20;1.30;;;;;;;16.88;nan;96709.00;3552333;40;20465;-71
2021/07/11 07:41:45;;;;;;;2.60;1.77;;;;;;;16.85;nan;96708.47;3551367;40;20910;-73
2021/07/11 07:44:12;;;;;;;2.23;1.77;;;;;;;17.07;nan;96710.78;3549665;40;20848;-72
2021/07/11 07:46:40;;;;;;;4.20;1.80;;;;;;;17.45;nan;96711.63;3551319;40;20851;-71
2021/07/11 07:49:10;;;;;;;4.90;1.97;;;;;;;17.69;nan;96712.91;3548003;40;20446;-74
2021/07/11 07:51:40;;;;;;;4.17;1.80;;;;;;;17.80;nan;96718.03;3547788;40;20745;-71
2021/07/11 07:54:08;;;;;;;2.97;1.70;;;;;;;17.89;nan;96717.16;3549990;40;20428;-74
2021/07/11 07:56:36;;;;;;;2.20;1.30;;;;;;;17.56;nan;96718.53;3548907;40;20859;-73
2021/07/11 07:59:04;;;;;;;7.90;1.83;;;;;;;17.45;nan;96716.91;3553096;40;20460;-70
2021/07/11 08:01:32;;;;;;;6.07;3.07;;;;;;;17.51;nan;96718.16;3548241;40;20826;-71
2021/07/11 08:04:03;;;;;;;3.33;2.47;;;;;;;17.75;nan;96720.28;3549948;40;20802;-70
2021/07/11 08:06:33;;;;;;;4.90;1.90;;;;;;;18.52;nan;96718.97;3551909;40;20628;-72
2021/07/11 08:09:01;;;;;;;3.30;1.60;;;;;;;18.78;nan;96719.00;3553175;40;20444;-71
2021/07/11 08:11:28;;;;;;;5.13;1.70;;;;;;;18.71;nan;96712.63;3552140;40;20451;-72
2021/07/11 08:13:56;;;;;;;2.70;2.30;;;;;;;18.82;nan;96718.72;3555307;40;20451;-71
2021/07/11 08:16:24;;;;;;;6.40;1.70;;;;;;;18.60;nan;96717.34;3552149;40;20463;-72
2021/07/11 08:18:52;;;;;;;1.93;1.60;;;;;;;18.67;nan;96713.94;3549741;40;20479;-72
2021/07/11 08:21:21;;;;;;;1.70;1.30;;;;;;;18.74;nan;96715.00;3553158;40;20729;-71
2021/07/11 08:23:51;;;;;;;3.57;1.77;;;;;;;18.23;nan;96720.97;3554488;40;20456;-69
2021/07/11 08:26:19;;;;;;;4.47;1.90;;;;;;;18.12;nan;96714.09;3549471;40;20489;-72
2021/07/11 08:28:47;;;;;;;3.63;2.17;;;;;;;18.10;nan;96716.06;3547850;40;20463;-70
2021/07/11 08:31:18;;;;;;;4.93;2.17;;;;;;;18.42;nan;96717.38;3548714;40;20707;-70
2021/07/11 08:33:46;;;;;;;2.20;1.40;;;;;;;18.12;nan;96720.22;3549288;40;21104;-71
2021/07/11 08:36:14;;;;;;;3.63;1.37;;;;;;;17.89;nan;96727.75;3552873;40;21093;-70
2021/07/11 08:38:42;;;;;;;4.17;1.70;;;;;;;18.22;nan;96724.63;3552193;40;20810;-71
2021/07/11 08:41:14;;;;;;;2.00;1.20;;;;;;;18.16;nan;96716.28;3546145;40;20477;-71
2021/07/11 08:43:42;;;;;;;1.93;1.37;;;;;;;18.40;nan;96722.81;3548601;40;21114;-72
2021/07/11 08:46:09;;;;;;;2.97;1.47;;;;;;;18.44;nan;96731.31;3546893;40;20475;-72
2021/07/11 08:48:40;;;;;;;14.70;8.57;;;;;;;18.61;nan;96735.78;3547493;40;20854;-72
2021/07/11 08:51:08;;;;;;;4.30;1.53;;;;;;;18.44;nan;96732.13;3548077;40;20902;-72
2021/07/11 08:53:36;;;;;;;2.70;1.63;;;;;;;18.85;nan;96734.34;3549251;40;20451;-71
2021/07/11 08:56:05;;;;;;;3.43;1.80;;;;;;;19.21;nan;96734.25;3549887;40;20883;-72
2021/07/11 08:58:34;;;;;;;2.90;1.60;;;;;;;18.92;nan;96732.75;3551535;40;20704;-73
2021/07/11 09:01:03;;;;;;;2.87;1.40;;;;;;;18.47;nan;96723.88;3549995;40;21123;-72
2021/07/11 09:03:30;;;;;;;5.23;1.33;;;;;;;18.23;nan;96745.69;3551852;40;20462;-72
2021/07/11 09:05:58;;;;;;;2.30;1.30;;;;;;;18.08;nan;96718.03;3548927;40;20549;-70
2021/07/11 09:08:26;;;;;;;3.67;1.20;;;;;;;18.51;nan;96745.63;3547967;40;20937;-70
2021/07/11 09:10:56;;;;;;;2.50;1.70;;;;;;;18.65;nan;96747.72;3554047;40;20454;-68
2021/07/11 09:13:26;;;;;;;1.90;1.40;;;;;;;18.44;nan;96741.91;3552130;40;20856;-73
2021/07/11 09:15:57;;;;;;;3.73;1.90;;;;;;;18.87;nan;96740.31;3550519;39;20474;-71
2021/07/11 09:18:27;;;;;;;2.10;1.43;;;;;;;19.01;nan;96746.88;3547249;40;20491;-71
2021/07/11 09:20:57;;;;;;;2.03;1.20;;;;;;;19.30;nan;96741.28;3548720;39;20448;-71
2021/07/11 09:23:25;;;;;;;2.60;1.73;;;;;;;19.27;nan;96742.44;3550740;40;21268;-69
2021/07/11 09:25:58;;;;;;;1.60;1.50;;;;;;;19.15;nan;96741.00;3553107;40;20709;-73
2021/07/11 09:28:26;;;;;;;2.60;1.60;;;;;;;19.46;nan;96749.34;3550426;40;20478;-73
2021/07/11 09:31:14;;;;;;;4.93;1.63;;;;;;;19.78;nan;96749.69;3547560;40;20919;-72
2021/07/11 09:33:45;;;;;;;2.20;1.40;;;;;;;20.07;nan;96751.97;3550427;40;20743;-70
2021/07/11 09:36:17;;;;;;;4.27;1.97;;;;;;;20.30;nan;96742.38;3551558;40;20969;-69
2021/07/11 09:38:48;;;;;;;1.70;1.60;;;;;;;20.01;nan;96731.34;3550890;40;20559;-70
2021/07/11 09:41:22;;;;;;;10.40;1.70;;;;;;;20.29;nan;96738.09;3549377;40;20841;-74
2021/07/11 09:43:53;;;;;;;7.20;4.73;;;;;;;20.77;nan;96745.50;3554497;40;20552;-70
2021/07/11 09:46:25;;;;;;;3.03;2.07;;;;;;;20.49;nan;96737.78;3548561;40;20848;-71
2021/07/11 09:48:53;;;;;;;3.83;1.80;;;;;;;21.18;nan;96742.81;3552242;40;20464;-70
2021/07/11 09:51:22;;;;;;;1.90;1.23;;;;;;;21.02;nan;96739.16;3549793;40;20891;-71
2021/07/11 09:53:53;;;;;;;3.70;1.80;;;;;;;21.30;nan;96733.47;3550212;40;20991;-70
2021/07/11 09:56:32;;;;;;;4.60;1.30;;;;;;;21.57;nan;96737.59;3547960;40;20527;-70
2021/07/11 09:59:01;;;;;;;1.97;1.30;;;;;;;21.38;nan;96744.09;3547732;40;20585;-73
2021/07/11 10:01:32;;;;;;;3.27;1.40;;;;;;;20.92;nan;96736.66;3549896;40;20486;-69
2021/07/11 10:04:01;;;;;;;2.90;1.70;;;;;;;21.38;nan;96743.28;3550073;40;20674;-70
2021/07/11 10:06:31;;;;;;;3.77;1.40;;;;;;;21.33;nan;96744.63;3545489;40;20471;-71
2021/07/11 10:09:00;;;;;;;3.90;2.20;;;;;;;21.22;nan;96746.78;3546527;40;20925;-72
2021/07/11 10:11:28;;;;;;;7.30;1.70;;;;;;;20.93;nan;96737.50;3549018;40;20492;-73
2021/07/11 10:13:57;;;;;;;3.83;2.00;;;;;;;21.18;nan;96742.81;3550113;40;21208;-71
2021/07/11 10:16:26;;;;;;;1.97;1.13;;;;;;;20.79;nan;96738.16;3549053;40;20705;-71
2021/07/11 10:18:58;;;;;;;7.70;1.80;;;;;;;20.57;nan;96747.59;3549363;40;21088;-73
2021/07/11 10:21:29;;;;;;;1.40;1.30;;;;;;;20.78;nan;96745.31;3548921;40;20476;-71
2021/07/11 10:23:57;;;;;;;1.87;1.43;;;;;;;21.26;nan;96743.63;3551842;40;20453;-74
2021/07/11 10:26:36;;;;;;;4.30;1.77;;;;;;;21.74;nan;96743.72;3550367;40;20906;-71
2021/07/11 10:29:12;;;;;;;4.63;2.20;;;;;;;21.64;nan;96740.41;3548899;40;20474;-70
2021/07/11 10:31:43;;;;;;;3.77;1.90;;;;;;;21.09;nan;96744.63;3548326;40;20573;-72
2021/07/11 10:34:13;;;;;;;1.80;1.13;;;;;;;20.37;nan;96739.94;3545221;40;20990;-72
2021/07/11 10:36:42;;;;;;;2.80;1.70;;;;;;;20.20;nan;96749.69;3546009;40;20743;-71
2021/07/11 10:39:12;;;;;;;3.63;1.50;;;;;;;20.31;nan;96736.09;3550053;39;20466;-73
2021/07/11 10:41:49;;;;;;;4.73;1.77;;;;;;;20.31;nan;96743.25;3550020;40;20848;-70
2021/07/11 10:44:22;;;;;;;6.23;1.60;;;;;;;20.26;nan;96741.06;3548691;40;20919;-71
2021/07/11 10:46:54;;;;;;;3.27;1.63;;;;;;;20.16;nan;96743.03;3549385;40;21103;-73
2021/07/11 10:49:27;;;;;;;7.43;4.30;;;;;;;20.46;nan;96743.41;3551826;40;20438;-73
2021/07/11 10:51:57;;;;;;;3.20;2.00;;;;;;;20.54;nan;96724.81;3554039;40;20545;-71
2021/07/11 10:54:31;;;;;;;3.47;1.60;;;;;;;20.67;nan;96745.66;3552635;40;20467;-73
2021/07/11 10:57:01;;;;;;;6.20;1.63;;;;;;;20.69;nan;96744.47;3551778;40;20772;-72
2021/07/11 10:59:31;;;;;;;2.30;1.63;;;;;;;20.80;nan;96729.22;3552131;40;20576;-70
2021/07/11 11:02:00;;;;;;;6.20;2.00;;;;;;;21.17;nan;96741.13;3553838;40;20467;-73
2021/07/11 11:04:30;;;;;;;4.63;1.70;;;;;;;20.76;nan;96738.50;3551248;40;20459;-73
2021/07/11 11:07:13;;;;;;;2.77;1.40;;;;;;;20.66;nan;96744.81;3549535;40;20894;-72
2021/07/11 11:09:51;;;;;;;3.30;1.93;;;;;;;20.79;nan;96746.16;3554746;40;20491;-70
2021/07/11 11:12:21;;;;;;;1.70;1.27;;;;;;;20.08;nan;96740.34;3550154;40;20547;-74
2021/07/11 11:14:55;;;;;;;2.53;1.63;;;;;;;20.08;nan;96735.03;3552094;40;20452;-72
2021/07/11 11:17:30;;;;;;;1.60;1.50;;;;;;;20.34;nan;96730.44;3550741;40;21102;-72
2021/07/11 11:20:01;;;;;;;4.90;1.30;;;;;;;20.48;nan;96736.09;3550049;39;20568;-73
2021/07/11 11:22:29;;;;;;;1.37;1.13;;;;;;;20.46;nan;96732.78;3552919;40;20458;-72
2021/07/11 11:24:58;;;;;;;4.10;1.30;;;;;;;20.74;nan;96728.84;3552371;40;20478;-72
2021/07/11 11:27:35;;;;;;;1.70;1.20;;;;;;;20.40;nan;96728.13;3553100;40;20809;-71
2021/07/11 11:30:13;;;;;;;2.47;1.40;;;;;;;21.28;nan;96727.47;3549709;40;20458;-71
2021/07/11 11:32:41;;;;;;;2.70;1.30;;;;;;;21.26;nan;96724.97;3551684;40;20443;-73
2021/07/11 11:35:17;;;;;;;4.50;1.10;;;;;;;21.57;nan;96726.13;3547726;40;20456;-71
2021/07/11 11:37:49;;;;;;;1.20;1.07;;;;;;;22.66;nan;96729.75;3554408;40;20459;-72
2021/07/11 11:40:18;;;;;;;2.13;1.57;;;;;;;23.96;nan;96724.16;3552077;40;20691;-71
2021/07/11 11:42:47;;;;;;;2.50;1.40;;;;;;;23.46;nan;96728.38;3552984;40;20841;-70
2021/07/11 11:45:17;;;;;;;3.80;1.00;;;;;;;23.67;nan;96719.63;3549930;40;20584;-74
2021/07/11 11:47:45;;;;;;;1.30;0.97;;;;;;;24.44;nan;96721.84;3547498;40;20529;-71
2021/07/11 11:50:19;;;;;;;1.60;1.10;;;;;;;24.42;nan;96715.84;3546374;40;20526;-71
2021/07/11 11:52:47;;;;;;;1.37;1.03;;;;;;;23.45;nan;96724.88;3550285;40;20808;-70
2021/07/11 11:55:16;;;;;;;2.17;1.47;;;;;;;22.92;nan;96718.69;3549398;40;20499;-74
2021/07/11 11:57:44;;;;;;;92.30;51.77;;;;;;;22.85;nan;96717.75;3550541;40;20549;-70
2021/07/11 12:00:17;;;;;;;11.37;6.80;;;;;;;22.40;nan;96727.41;3548163;40;20541;-70